Time;durP1;ratioP1;P1;durP2;ratioP2;P2;SDS_P1;SDS_P2;PMS_P1;PMS_P2;Temp;Humidity;BMP_temperature;BMP_pressure;BME280_temperature;BME280_humidity;BME280_pressure;Samples;Min_cycle;Max_cycle;Signal;HPM_P1;HPM_P2
2021/12/03 00:01:09;;;;;;;12.50;7.30;;;;;;;;;;770253;180;918876;-67
2021/12/03 00:03:35;;;;;;;15.60;6.77;;;;;;;;;;774226;180;915787;-66
2021/12/03 00:06:01;;;;;;;13.60;6.23;;;;;;;;;;769535;180;916333;-67
2021/12/03 00:08:27;;;;;;;13.83;7.40;;;;;;;;;;772042;179;915965;-67
2021/12/03 00:10:56;;;;;;;15.30;6.00;;;;;;;;;;777726;180;918837;-68
2021/12/03 00:13:20;;;;;;;12.40;6.53;;;;;;;;;;772873;179;623640;-67
2021/12/03 00:15:45;;;;;;;18.40;6.60;;;;;;;;;;765272;180;670785;-67
2021/12/03 00:18:11;;;;;;;12.30;6.53;;;;;;;;;;770879;181;915694;-67
2021/12/03 00:20:39;;;;;;;10.50;5.40;;;;;;;;;;768074;180;916446;-67
2021/12/03 00:23:03;;;;;;;10.30;4.93;;;;;;;;;;766768;180;917236;-67
2021/12/03 00:25:29;;;;;;;12.63;5.00;;;;;;;;;;767662;180;972333;-67
2021/12/03 00:27:55;;;;;;;13.73;5.85;;;;;;;;;;767122;181;918960;-66
2021/12/03 00:30:20;;;;;;;13.40;5.87;;;;;;;;;;767629;181;912021;-67
2021/12/03 00:32:46;;;;;;;10.23;5.40;;;;;;;;;;771717;180;919808;-67
2021/12/03 00:35:12;;;;;;;8.00;4.90;;;;;;;;;;779402;180;913713;-67
2021/12/03 00:37:38;;;;;;;11.30;5.10;;;;;;;;;;762945;182;913011;-68
2021/12/03 00:40:04;;;;;;;11.65;4.97;;;;;;;;;;771010;179;937662;-67
2021/12/03 00:42:31;;;;;;;22.30;5.73;;;;;;;;;;769111;181;913825;-68
2021/12/03 00:44:56;;;;;;;11.30;4.47;;;;;;;;;;768615;180;912040;-67
2021/12/03 00:47:22;;;;;;;10.13;4.83;;;;;;;;;;765250;179;916943;-68
2021/12/03 00:49:48;;;;;;;8.65;4.72;;;;;;;;;;759107;184;915954;-66
2021/12/03 00:52:13;;;;;;;12.67;4.20;;;;;;;;;;765783;183;914925;-67
2021/12/03 00:54:39;;;;;;;8.23;4.30;;;;;;;;;;744575;185;995693;-68
2021/12/03 00:57:05;;;;;;;13.47;4.80;;;;;;;;;;738240;186;917757;-68
2021/12/03 00:59:31;;;;;;;12.40;3.70;;;;;;;;;;750350;186;919280;-68
2021/12/03 01:01:57;;;;;;;4.50;2.83;;;;;;;;;;745460;183;919888;-67
2021/12/03 01:04:23;;;;;;;13.30;3.40;;;;;;;;;;754943;183;919803;-67
2021/12/03 01:06:48;;;;;;;13.33;3.50;;;;;;;;;;761791;184;919351;-67
2021/12/03 01:09:14;;;;;;;8.63;3.45;;;;;;;;;;772778;180;920823;-67
2021/12/03 01:11:40;;;;;;;6.80;3.40;;;;;;;;;;772308;179;919309;-67
2021/12/03 01:14:06;;;;;;;8.20;3.27;;;;;;;;;;768295;182;922127;-67
2021/12/03 01:16:32;;;;;;;6.00;2.83;;;;;;;;;;767694;180;913558;-67
2021/12/03 01:18:58;;;;;;;5.73;2.87;;;;;;;;;;766117;180;915596;-67
2021/12/03 01:21:23;;;;;;;5.62;2.80;;;;;;;;;;767441;180;913801;-67
2021/12/03 01:23:49;;;;;;;11.73;3.30;;;;;;;;;;752454;185;912859;-67
2021/12/03 01:26:15;;;;;;;7.73;3.50;;;;;;;;;;749162;184;1013667;-67
2021/12/03 01:28:41;;;;;;;11.03;3.07;;;;;;;;;;756511;183;913133;-67
2021/12/03 01:31:07;;;;;;;5.63;3.07;;;;;;;;;;747523;184;929017;-67
2021/12/03 01:33:33;;;;;;;6.33;3.27;;;;;;;;;;749951;184;916642;-67
2021/12/03 01:35:58;;;;;;;5.17;3.00;;;;;;;;;;750528;184;1019732;-67
2021/12/03 01:38:24;;;;;;;7.43;3.60;;;;;;;;;;764050;184;916374;-67
2021/12/03 01:40:50;;;;;;;8.97;4.00;;;;;;;;;;767939;181;916649;-67
2021/12/03 01:43:22;;;;;;;8.13;3.10;;;;;;;;;;773773;180;917214;-67
2021/12/03 01:45:42;;;;;;;11.60;3.80;;;;;;;;;;765638;180;917668;-68
2021/12/03 01:48:08;;;;;;;7.80;3.80;;;;;;;;;;769916;180;916454;-66
2021/12/03 01:50:34;;;;;;;8.13;4.00;;;;;;;;;;771159;180;917273;-67
2021/12/03 01:52:59;;;;;;;8.77;4.10;;;;;;;;;;771902;180;916516;-66
2021/12/03 01:55:25;;;;;;;12.73;3.93;;;;;;;;;;778329;180;916369;-65
2021/12/03 01:57:51;;;;;;;12.13;5.68;;;;;;;;;;769480;180;917426;-66
2021/12/03 02:00:18;;;;;;;15.03;5.37;;;;;;;;;;771798;180;916994;-65
2021/12/03 02:02:44;;;;;;;9.27;4.63;;;;;;;;;;775679;180;916177;-66
2021/12/03 02:05:09;;;;;;;15.23;7.27;;;;;;;;;;765122;181;918830;-65
2021/12/03 02:07:35;;;;;;;10.37;5.60;;;;;;;;;;769178;180;921311;-65
2021/12/03 02:10:01;;;;;;;18.48;7.72;;;;;;;;;;767493;180;916697;-65
2021/12/03 02:12:27;;;;;;;16.37;7.30;;;;;;;;;;765613;182;983035;-65
2021/12/03 02:14:53;;;;;;;21.80;9.97;;;;;;;;;;773024;180;916557;-66
2021/12/03 02:17:19;;;;;;;27.80;9.00;;;;;;;;;;769135;179;916744;-64
2021/12/03 02:19:45;;;;;;;17.90;6.67;;;;;;;;;;774400;180;917023;-62
2021/12/03 02:22:10;;;;;;;14.47;6.23;;;;;;;;;;767414;180;915704;-63
2021/12/03 02:24:36;;;;;;;11.00;6.13;;;;;;;;;;770222;180;919457;-61
2021/12/03 02:27:02;;;;;;;10.33;5.03;;;;;;;;;;770378;180;916876;-63
2021/12/03 02:29:30;;;;;;;11.17;6.07;;;;;;;;;;770555;180;916461;-62
2021/12/03 02:31:54;;;;;;;11.07;6.23;;;;;;;;;;771707;180;910653;-62
2021/12/03 02:34:20;;;;;;;12.03;6.77;;;;;;;;;;770822;181;916636;-63
2021/12/03 02:36:46;;;;;;;15.57;6.23;;;;;;;;;;771557;180;916486;-63
2021/12/03 02:39:11;;;;;;;11.70;5.93;;;;;;;;;;770716;180;916420;-63
2021/12/03 02:41:37;;;;;;;18.57;5.50;;;;;;;;;;772152;180;916814;-63
2021/12/03 02:44:03;;;;;;;26.37;6.83;;;;;;;;;;776826;179;919394;-62
2021/12/03 02:46:29;;;;;;;14.33;6.20;;;;;;;;;;769579;180;916166;-62
2021/12/03 02:48:55;;;;;;;8.70;5.67;;;;;;;;;;772197;179;915807;-63
2021/12/03 02:51:21;;;;;;;15.47;6.60;;;;;;;;;;773370;180;915212;-63
2021/12/03 02:53:47;;;;;;;12.87;6.20;;;;;;;;;;764643;182;627129;-63
2021/12/03 02:56:12;;;;;;;10.73;6.60;;;;;;;;;;769450;181;916084;-62
2021/12/03 02:58:38;;;;;;;15.30;8.03;;;;;;;;;;774700;180;916385;-62
2021/12/03 03:01:04;;;;;;;12.07;6.43;;;;;;;;;;768866;179;920724;-62
2021/12/03 03:03:30;;;;;;;12.00;5.70;;;;;;;;;;768072;180;916505;-62
2021/12/03 03:05:56;;;;;;;13.00;5.70;;;;;;;;;;772732;179;916448;-62
2021/12/03 03:08:22;;;;;;;11.73;5.77;;;;;;;;;;770347;180;916255;-63
2021/12/03 03:10:47;;;;;;;10.48;4.40;;;;;;;;;;762024;181;915510;-62
2021/12/03 03:13:13;;;;;;;8.73;3.60;;;;;;;;;;763507;180;955261;-62
2021/12/03 03:15:39;;;;;;;8.57;3.47;;;;;;;;;;774228;180;916238;-62
2021/12/03 03:18:11;;;;;;;11.80;3.93;;;;;;;;;;766405;180;923162;-62
2021/12/03 03:20:36;;;;;;;8.00;4.10;;;;;;;;;;763263;180;919894;-63
2021/12/03 03:23:03;;;;;;;13.50;4.70;;;;;;;;;;770942;180;919374;-62
2021/12/03 03:25:28;;;;;;;10.70;4.13;;;;;;;;;;772225;181;922161;-62
2021/12/03 03:27:54;;;;;;;8.60;4.20;;;;;;;;;;766958;181;921274;-64
2021/12/03 03:30:21;;;;;;;11.70;4.55;;;;;;;;;;766088;180;1022703;-62
2021/12/03 03:32:46;;;;;;;14.37;4.70;;;;;;;;;;773485;179;919260;-63
2021/12/03 03:35:12;;;;;;;8.82;4.05;;;;;;;;;;768048;180;915423;-61
2021/12/03 03:37:38;;;;;;;10.97;4.30;;;;;;;;;;770196;180;915082;-63
2021/12/03 03:40:04;;;;;;;9.90;4.80;;;;;;;;;;778446;180;913070;-62
2021/12/03 03:42:30;;;;;;;7.87;4.10;;;;;;;;;;760043;180;1114025;-62
2021/12/03 03:44:56;;;;;;;6.83;4.53;;;;;;;;;;762449;181;911789;-62
2021/12/03 03:47:21;;;;;;;8.63;4.27;;;;;;;;;;777742;180;904698;-62
2021/12/03 03:49:47;;;;;;;9.47;3.70;;;;;;;;;;767724;180;916012;-62
2021/12/03 03:52:13;;;;;;;11.77;4.70;;;;;;;;;;762166;180;916046;-62
2021/12/03 03:54:39;;;;;;;10.73;4.77;;;;;;;;;;768054;180;917036;-61
2021/12/03 03:57:05;;;;;;;26.97;12.17;;;;;;;;;;769084;180;915289;-62
2021/12/03 03:59:31;;;;;;;24.30;11.90;;;;;;;;;;768510;180;915825;-61
2021/12/03 04:01:56;;;;;;;21.08;11.38;;;;;;;;;;761343;181;915523;-63
2021/12/03 04:04:22;;;;;;;22.47;10.53;;;;;;;;;;777045;180;915640;-62
2021/12/03 04:06:49;;;;;;;24.70;10.87;;;;;;;;;;771155;180;915973;-62
2021/12/03 04:09:14;;;;;;;22.13;10.60;;;;;;;;;;765757;180;1016694;-63
2021/12/03 04:11:40;;;;;;;22.77;9.90;;;;;;;;;;768984;180;916351;-62
2021/12/03 04:14:06;;;;;;;18.70;10.50;;;;;;;;;;771544;178;919416;-62
2021/12/03 04:16:32;;;;;;;20.20;9.43;;;;;;;;;;769329;180;921122;-63
2021/12/03 04:18:57;;;;;;;16.60;7.90;;;;;;;;;;768684;180;917113;-63
2021/12/03 04:21:23;;;;;;;18.00;8.43;;;;;;;;;;770173;181;623107;-63
2021/12/03 04:23:49;;;;;;;18.43;7.67;;;;;;;;;;765862;180;920246;-64
2021/12/03 04:26:15;;;;;;;14.47;8.33;;;;;;;;;;767824;180;914138;-63
2021/12/03 04:28:41;;;;;;;36.37;15.73;;;;;;;;;;773878;180;916931;-64
2021/12/03 04:31:07;;;;;;;33.10;15.93;;;;;;;;;;769734;179;915814;-64
2021/12/03 04:33:32;;;;;;;32.33;13.20;;;;;;;;;;772114;180;912416;-65
2021/12/03 04:35:58;;;;;;;28.87;13.77;;;;;;;;;;777333;180;912257;-66
2021/12/03 04:38:24;;;;;;;34.90;14.73;;;;;;;;;;761925;180;932375;-66
2021/12/03 04:40:50;;;;;;;30.07;14.30;;;;;;;;;;763095;181;923300;-66
2021/12/03 04:43:17;;;;;;;25.70;14.90;;;;;;;;;;772073;180;916127;-65
2021/12/03 04:45:43;;;;;;;27.70;13.17;;;;;;;;;;771908;180;916083;-66
2021/12/03 04:48:08;;;;;;;33.40;16.03;;;;;;;;;;766373;180;937316;-67
2021/12/03 04:50:34;;;;;;;33.37;16.13;;;;;;;;;;770141;180;921855;-66
2021/12/03 04:53:00;;;;;;;30.27;15.10;;;;;;;;;;776726;180;915523;-66
2021/12/03 04:55:26;;;;;;;28.30;12.70;;;;;;;;;;770970;180;915608;-65
2021/12/03 04:57:54;;;;;;;27.00;13.85;;;;;;;;;;768073;180;1018042;-67
2021/12/03 05:00:23;;;;;;;20.90;11.33;;;;;;;;;;773922;179;919939;-67
2021/12/03 05:02:51;;;;;;;19.63;10.70;;;;;;;;;;768735;180;916022;-67
2021/12/03 05:05:15;;;;;;;23.17;11.37;;;;;;;;;;770877;181;888663;-67
2021/12/03 05:10:13;;;;;;;29.00;12.90;;;;;;;;;;772610;180;915922;-67
2021/12/03 05:12:39;;;;;;;27.73;11.27;;;;;;;;;;759005;179;1226068;-67
2021/12/03 05:15:05;;;;;;;20.88;10.95;;;;;;;;;;764663;181;920267;-67
2021/12/03 05:17:31;;;;;;;23.03;9.63;;;;;;;;;;768400;180;916453;-68
2021/12/03 05:19:57;;;;;;;17.42;6.70;;;;;;;;;;768849;181;914992;-68
2021/12/03 05:22:23;;;;;;;20.00;8.87;;;;;;;;;;774397;180;628922;-67
2021/12/03 05:24:49;;;;;;;11.07;8.20;;;;;;;;;;776025;179;650085;-67
2021/12/03 05:27:14;;;;;;;10.67;6.57;;;;;;;;;;776410;180;621338;-67
2021/12/03 05:29:40;;;;;;;11.03;5.30;;;;;;;;;;772324;180;650546;-68
2021/12/03 05:32:06;;;;;;;15.07;7.30;;;;;;;;;;768777;179;919570;-67
2021/12/03 05:34:32;;;;;;;15.30;9.50;;;;;;;;;;768815;180;919981;-68
2021/12/03 05:36:58;;;;;;;24.87;12.55;;;;;;;;;;771193;180;919532;-68
2021/12/03 05:39:24;;;;;;;27.33;13.70;;;;;;;;;;764158;180;918970;-68
2021/12/03 05:41:50;;;;;;;20.30;13.00;;;;;;;;;;773357;180;918127;-68
2021/12/03 05:44:15;;;;;;;21.37;12.17;;;;;;;;;;772371;180;920516;-68
2021/12/03 05:46:41;;;;;;;20.87;11.10;;;;;;;;;;770562;179;922534;-68
2021/12/03 05:49:07;;;;;;;18.43;10.30;;;;;;;;;;762977;180;923440;-66
2021/12/03 05:51:33;;;;;;;14.57;9.10;;;;;;;;;;775981;180;918296;-68
2021/12/03 05:53:59;;;;;;;16.97;8.43;;;;;;;;;;772519;180;920432;-67
2021/12/03 05:56:25;;;;;;;17.90;9.93;;;;;;;;;;766768;180;915557;-68
2021/12/03 05:58:51;;;;;;;13.40;8.07;;;;;;;;;;772814;179;920245;-68
2021/12/03 06:01:16;;;;;;;17.60;9.23;;;;;;;;;;771596;180;917017;-67
2021/12/03 06:03:42;;;;;;;15.77;8.20;;;;;;;;;;771096;180;918564;-68
2021/12/03 06:06:08;;;;;;;17.97;8.90;;;;;;;;;;777250;180;914597;-68
2021/12/03 06:08:34;;;;;;;18.20;9.10;;;;;;;;;;767923;179;917153;-68
2021/12/03 06:11:00;;;;;;;16.10;8.07;;;;;;;;;;765705;180;915442;-67
2021/12/03 06:13:26;;;;;;;17.50;9.40;;;;;;;;;;764366;180;918793;-66
2021/12/03 06:15:51;;;;;;;16.07;8.50;;;;;;;;;;764239;183;920130;-68
2021/12/03 06:18:17;;;;;;;17.43;9.43;;;;;;;;;;763404;180;919547;-68
2021/12/03 06:20:43;;;;;;;23.60;8.90;;;;;;;;;;766564;180;919580;-68
2021/12/03 06:23:09;;;;;;;20.17;8.17;;;;;;;;;;774245;180;915870;-68
2021/12/03 06:25:35;;;;;;;21.80;8.40;;;;;;;;;;772213;180;919115;-68
2021/12/03 06:28:01;;;;;;;13.60;8.50;;;;;;;;;;768397;180;920418;-67
2021/12/03 06:30:27;;;;;;;20.23;9.90;;;;;;;;;;771884;181;919256;-68
2021/12/03 06:32:53;;;;;;;16.70;8.83;;;;;;;;;;769321;180;917497;-68
2021/12/03 06:35:19;;;;;;;14.60;8.60;;;;;;;;;;768189;180;919774;-67
2021/12/03 06:37:45;;;;;;;15.30;8.30;;;;;;;;;;772127;178;919762;-66
2021/12/03 06:40:12;;;;;;;15.20;8.10;;;;;;;;;;774409;181;918710;-66
2021/12/03 06:42:38;;;;;;;18.77;8.60;;;;;;;;;;772428;179;918847;-67
2021/12/03 06:45:06;;;;;;;16.07;7.80;;;;;;;;;;754677;183;920703;-67
2021/12/03 06:47:31;;;;;;;16.67;8.43;;;;;;;;;;759021;183;918194;-67
2021/12/03 06:49:56;;;;;;;15.73;9.00;;;;;;;;;;768463;179;918256;-67
2021/12/03 06:52:22;;;;;;;17.17;8.70;;;;;;;;;;767609;179;920554;-67
2021/12/03 06:54:55;;;;;;;17.57;9.20;;;;;;;;;;771081;180;918047;-69
2021/12/03 06:57:13;;;;;;;14.43;8.82;;;;;;;;;;772842;179;918361;-67
2021/12/03 06:59:40;;;;;;;17.77;8.70;;;;;;;;;;769542;181;917761;-67
2021/12/03 07:02:06;;;;;;;28.20;11.20;;;;;;;;;;777304;180;918259;-65
2021/12/03 07:04:32;;;;;;;23.97;10.70;;;;;;;;;;770121;182;920383;-67
2021/12/03 07:06:58;;;;;;;23.10;11.07;;;;;;;;;;769525;180;918414;-67
2021/12/03 07:09:23;;;;;;;21.73;12.03;;;;;;;;;;770942;179;915476;-67
2021/12/03 07:11:49;;;;;;;33.47;18.50;;;;;;;;;;760017;183;911109;-67
2021/12/03 07:14:15;;;;;;;37.75;19.92;;;;;;;;;;764377;180;915558;-67
2021/12/03 07:16:41;;;;;;;52.10;30.13;;;;;;;;;;769684;181;912096;-67
2021/12/03 07:19:07;;;;;;;47.17;25.03;;;;;;;;;;773608;181;918374;-67
2021/12/03 07:21:33;;;;;;;29.93;15.20;;;;;;;;;;770062;180;918409;-67
2021/12/03 07:23:59;;;;;;;19.43;10.80;;;;;;;;;;767272;180;940815;-67
2021/12/03 07:26:24;;;;;;;13.57;8.73;;;;;;;;;;771580;180;918785;-67
2021/12/03 07:28:50;;;;;;;17.80;9.07;;;;;;;;;;771358;180;920610;-67
2021/12/03 07:31:16;;;;;;;20.87;9.80;;;;;;;;;;769958;180;918417;-67
2021/12/03 07:33:42;;;;;;;16.17;10.37;;;;;;;;;;765922;181;920456;-66
2021/12/03 07:36:08;;;;;;;21.80;9.80;;;;;;;;;;774974;180;918305;-67
2021/12/03 07:38:34;;;;;;;20.00;10.60;;;;;;;;;;771411;180;922261;-69
2021/12/03 07:40:59;;;;;;;17.77;9.57;;;;;;;;;;762843;181;919659;-66
2021/12/03 07:43:25;;;;;;;21.37;9.97;;;;;;;;;;773675;180;909583;-66
2021/12/03 07:45:51;;;;;;;18.07;9.53;;;;;;;;;;764218;180;921851;-65
2021/12/03 07:48:17;;;;;;;21.85;10.07;;;;;;;;;;772249;179;923631;-65
2021/12/03 07:50:43;;;;;;;20.00;9.40;;;;;;;;;;777308;179;920599;-65
2021/12/03 07:53:09;;;;;;;20.93;11.67;;;;;;;;;;772620;180;917707;-65
2021/12/03 07:55:35;;;;;;;22.70;10.50;;;;;;;;;;774040;180;915226;-65
2021/12/03 07:58:03;;;;;;;17.93;9.13;;;;;;;;;;768163;180;915216;-65
2021/12/03 08:00:27;;;;;;;24.33;11.63;;;;;;;;;;776346;179;917338;-65
2021/12/03 08:02:53;;;;;;;22.10;12.10;;;;;;;;;;766032;181;920495;-66
2021/12/03 08:05:19;;;;;;;16.60;10.70;;;;;;;;;;771417;180;920592;-65
2021/12/03 08:07:47;;;;;;;20.20;8.93;;;;;;;;;;777293;180;919606;-65
2021/12/03 08:10:11;;;;;;;21.25;10.10;;;;;;;;;;766321;180;916614;-64
2021/12/03 08:12:37;;;;;;;23.97;9.20;;;;;;;;;;772817;180;911973;-63
2021/12/03 08:15:04;;;;;;;19.87;10.80;;;;;;;;;;774837;180;920160;-63
2021/12/03 08:17:29;;;;;;;18.93;9.90;;;;;;;;;;769676;179;920168;-62
2021/12/03 08:19:55;;;;;;;20.40;12.70;;;;;;;;;;763994;180;919407;-61
2021/12/03 08:22:21;;;;;;;29.50;15.33;;;;;;;;;;760529;181;920235;-60
2021/12/03 08:27:41;;;;;;;40.33;22.50;;;;;;;;;;771452;181;918965;-61
2021/12/03 08:30:15;;;;;;;23.97;13.23;;;;;;;;;;771420;177;918959;-64
2021/12/03 08:32:42;;;;;;;24.45;13.05;;;;;;;;;;769271;179;919205;-62
2021/12/03 08:35:07;;;;;;;35.13;17.97;;;;;;;;;;764419;180;919872;-63
2021/12/03 08:37:32;;;;;;;24.03;11.17;;;;;;;;;;774067;180;919807;-62
2021/12/03 08:39:58;;;;;;;20.33;10.30;;;;;;;;;;770816;180;919112;-63
2021/12/03 08:42:24;;;;;;;16.67;10.00;;;;;;;;;;770574;180;920343;-63
2021/12/03 08:44:50;;;;;;;15.73;8.20;;;;;;;;;;774147;180;919361;-64
2021/12/03 08:47:17;;;;;;;14.15;8.38;;;;;;;;;;770959;180;919117;-64
2021/12/03 08:49:54;;;;;;;11.80;7.93;;;;;;;;;;770230;180;918239;-64
2021/12/03 08:53:05;;;;;;;14.32;6.07;;;;;;;;;;770739;180;919729;-64
2021/12/03 08:55:14;;;;;;;15.50;6.70;;;;;;;;;;767280;180;919299;-64
2021/12/03 08:57:40;;;;;;;13.47;7.00;;;;;;;;;;772064;180;919244;-65
2021/12/03 09:00:08;;;;;;;13.00;7.13;;;;;;;;;;773058;181;920646;-65
2021/12/03 09:02:33;;;;;;;20.95;11.50;;;;;;;;;;773479;179;919072;-66
2021/12/03 09:04:59;;;;;;;11.67;7.07;;;;;;;;;;770736;179;919765;-66
2021/12/03 09:07:25;;;;;;;10.53;7.10;;;;;;;;;;774772;179;919301;-66
2021/12/03 09:09:51;;;;;;;10.20;5.47;;;;;;;;;;764676;180;1971378;-68
2021/12/03 09:12:17;;;;;;;14.23;7.37;;;;;;;;;;768940;180;919613;-67
2021/12/03 09:14:53;;;;;;;28.13;8.33;;;;;;;;;;766706;182;919843;-67
2021/12/03 09:20:01;;;;;;;8.82;5.72;;;;;;;;;;768476;183;919743;-67
2021/12/03 09:22:32;;;;;;;9.63;5.60;;;;;;;;;;767767;180;918786;-68
2021/12/03 09:24:45;;;;;;;11.80;6.10;;;;;;;;;;759972;180;919272;-66
2021/12/03 09:27:11;;;;;;;9.20;5.23;;;;;;;;;;776269;181;919012;-67
2021/12/03 09:29:37;;;;;;;12.97;5.30;;;;;;;;;;772970;179;919295;-64
2021/12/03 09:32:03;;;;;;;10.87;5.93;;;;;;;;;;763455;181;919169;-64
2021/12/03 09:34:31;;;;;;;7.60;5.30;;;;;;;;;;769401;180;920848;-64
2021/12/03 09:36:55;;;;;;;10.03;5.50;;;;;;;;;;772292;182;919291;-64
2021/12/03 09:42:18;;;;;;;9.33;6.13;;;;;;;;;;768688;180;918793;-66
2021/12/03 09:44:41;;;;;;;9.47;5.80;;;;;;;;;;769079;180;919755;-66
2021/12/03 09:47:07;;;;;;;9.60;5.63;;;;;;;;;;769139;180;918528;-66
2021/12/03 09:49:34;;;;;;;10.80;5.80;;;;;;;;;;777464;180;630074;-66
2021/12/03 09:54:39;;;;;;;10.03;5.00;;;;;;;;;;769666;180;918943;-66
2021/12/03 09:57:07;;;;;;;8.13;5.60;;;;;;;;;;772347;180;920504;-65
2021/12/03 10:02:10;;;;;;;9.27;4.93;;;;;;;;;;760782;180;919097;-66
2021/12/03 10:04:42;;;;;;;6.90;4.83;;;;;;;;;;766631;180;919256;-66
2021/12/03 10:10:12;;;;;;;11.13;5.10;;;;;;;;;;773042;180;919134;-66
2021/12/03 10:12:16;;;;;;;12.63;5.57;;;;;;;;;;768526;180;919305;-65
2021/12/03 10:15:06;;;;;;;16.50;5.77;;;;;;;;;;772601;179;919521;-66
2021/12/03 10:17:34;;;;;;;10.10;5.33;;;;;;;;;;771110;179;918909;-66
2021/12/03 10:19:50;;;;;;;9.65;4.85;;;;;;;;;;765521;180;919675;-65
2021/12/03 10:25:19;;;;;;;10.23;6.10;;;;;;;;;;754420;183;925489;-65
2021/12/03 10:32:57;;;;;;;10.70;6.20;;;;;;;;;;746912;186;919138;-67
2021/12/03 10:40:17;;;;;;;15.70;6.00;;;;;;;;;;749343;183;912278;-68
2021/12/03 10:43:09;;;;;;;9.43;6.60;;;;;;;;;;753400;184;919402;-66
2021/12/03 10:45:41;;;;;;;11.50;7.37;;;;;;;;;;754420;184;919781;-66
2021/12/03 10:53:24;;;;;;;11.20;6.57;;;;;;;;;;769093;180;954520;-66
2021/12/03 10:58:30;;;;;;;8.50;5.60;;;;;;;;;;770504;180;919926;-66
2021/12/03 11:01:06;;;;;;;9.00;5.97;;;;;;;;;;767462;181;913012;-66
2021/12/03 11:06:10;;;;;;;12.03;5.77;;;;;;;;;;765887;180;945248;-64
2021/12/03 11:08:30;;;;;;;11.17;5.90;;;;;;;;;;767309;181;919406;-64
2021/12/03 11:13:59;;;;;;;11.87;6.80;;;;;;;;;;762169;181;919645;-64
2021/12/03 11:16:44;;;;;;;11.97;7.20;;;;;;;;;;767375;180;919027;-64
2021/12/03 11:29:26;;;;;;;11.60;6.20;;;;;;;;;;776373;179;919235;-64
2021/12/03 11:33:44;;;;;;;19.80;8.10;;;;;;;;;;768182;180;919364;-64
2021/12/03 11:54:27;;;;;;;17.07;5.90;;;;;;;;;;744770;185;922077;-64
2021/12/03 12:15:32;;;;;;;8.70;6.78;;;;;;;;;;772167;180;915772;-64
2021/12/03 12:18:16;;;;;;;7.80;5.03;;;;;;;;;;764103;181;921638;-65
2021/12/03 12:26:19;;;;;;;10.20;5.70;;;;;;;;;;765434;180;919933;-64
2021/12/03 12:36:18;;;;;;;11.50;5.50;;;;;;;;;;764763;181;919390;-64
2021/12/03 12:42:13;;;;;;;9.97;7.07;;;;;;;;;;753585;183;919965;-65
2021/12/03 12:44:28;;;;;;;10.13;6.67;;;;;;;;;;773540;180;919362;-64
2021/12/03 13:03:19;;;;;;;10.70;7.03;;;;;;;;;;761074;180;919361;-66
2021/12/03 13:18:23;;;;;;;9.60;6.05;;;;;;;;;;771728;180;919093;-65
2021/12/03 13:29:17;;;;;;;12.60;6.70;;;;;;;;;;759241;182;928390;-66
2021/12/03 13:37:16;;;;;;;10.90;7.33;;;;;;;;;;775147;180;924284;-65
2021/12/03 13:56:09;;;;;;;12.00;7.70;;;;;;;;;;770336;179;636310;-66
2021/12/03 14:01:54;;;;;;;15.87;7.63;;;;;;;;;;769827;180;919643;-64
2021/12/03 14:09:43;;;;;;;14.53;8.60;;;;;;;;;;767564;180;919421;-65
2021/12/03 14:29:23;;;;;;;10.73;7.73;;;;;;;;;;775062;180;917486;-66
2021/12/03 14:37:49;;;;;;;12.07;8.98;;;;;;;;;;764920;180;926061;-64
2021/12/03 14:40:15;;;;;;;16.27;8.67;;;;;;;;;;768452;180;930250;-65
2021/12/03 14:45:26;;;;;;;19.90;10.00;;;;;;;;;;758359;184;921156;-65
2021/12/03 14:50:45;;;;;;;24.10;13.17;;;;;;;;;;767800;180;1019945;-65
2021/12/03 14:53:12;;;;;;;19.50;11.43;;;;;;;;;;764814;180;919499;-65
2021/12/03 14:55:23;;;;;;;17.90;11.23;;;;;;;;;;766256;180;917054;-65
2021/12/03 14:57:56;;;;;;;15.80;10.20;;;;;;;;;;770414;179;921850;-66
2021/12/03 15:00:23;;;;;;;22.63;11.07;;;;;;;;;;764605;180;919700;-65
2021/12/03 15:02:59;;;;;;;19.57;11.90;;;;;;;;;;768636;180;927206;-65
2021/12/03 15:05:27;;;;;;;16.40;11.43;;;;;;;;;;771824;180;1021789;-65
2021/12/03 15:07:43;;;;;;;17.90;11.37;;;;;;;;;;766823;180;919364;-64
2021/12/03 15:10:13;;;;;;;21.13;11.17;;;;;;;;;;771046;180;893043;-65
2021/12/03 15:13:19;;;;;;;18.57;12.57;;;;;;;;;;768601;180;919458;-64
2021/12/03 15:23:36;;;;;;;14.23;10.80;;;;;;;;;;738071;186;629809;-63
2021/12/03 15:25:59;;;;;;;22.53;10.90;;;;;;;;;;760670;183;637897;-64
2021/12/03 15:31:16;;;;;;;21.00;12.77;;;;;;;;;;746409;184;920380;-65
2021/12/03 15:33:44;;;;;;;16.57;11.40;;;;;;;;;;765664;181;918047;-65
2021/12/03 15:35:59;;;;;;;27.83;13.30;;;;;;;;;;767755;180;919482;-64
2021/12/03 15:38:36;;;;;;;25.20;15.40;;;;;;;;;;776495;180;627561;-65
2021/12/03 15:56:45;;;;;;;21.63;13.37;;;;;;;;;;757393;181;919494;-66
2021/12/03 16:06:48;;;;;;;20.80;13.00;;;;;;;;;;769536;180;883903;-67
2021/12/03 16:09:18;;;;;;;20.23;13.80;;;;;;;;;;775766;180;915097;-66
2021/12/03 16:11:45;;;;;;;27.17;13.57;;;;;;;;;;761226;179;1027220;-67
2021/12/03 16:16:58;;;;;;;26.67;15.20;;;;;;;;;;773624;180;628408;-67
2021/12/03 16:21:48;;;;;;;26.30;15.83;;;;;;;;;;768242;180;919204;-67
2021/12/03 16:25:25;;;;;;;26.80;16.50;;;;;;;;;;774433;180;626311;-67
2021/12/03 16:44:58;;;;;;;31.67;17.87;;;;;;;;;;767860;180;919275;-69
2021/12/03 16:50:13;;;;;;;29.37;18.90;;;;;;;;;;773292;181;853467;-70
2021/12/03 16:52:22;;;;;;;27.60;17.50;;;;;;;;;;759299;181;919194;-70
2021/12/03 16:54:45;;;;;;;23.63;13.93;;;;;;;;;;764574;180;918849;-70
2021/12/03 16:57:09;;;;;;;28.17;15.23;;;;;;;;;;766263;180;919091;-70
2021/12/03 16:59:33;;;;;;;33.03;17.80;;;;;;;;;;774069;180;919838;-70
2021/12/03 17:02:07;;;;;;;27.37;17.90;;;;;;;;;;768239;180;919204;-72
2021/12/03 17:04:58;;;;;;;33.30;19.37;;;;;;;;;;768665;180;920458;-69
2021/12/03 17:12:39;;;;;;;34.80;21.70;;;;;;;;;;764267;181;919327;-69
2021/12/03 17:15:14;;;;;;;43.97;21.37;;;;;;;;;;769810;180;922150;-70
2021/12/03 17:18:23;;;;;;;32.63;21.67;;;;;;;;;;758828;179;914827;-71
2021/12/03 17:31:20;;;;;;;36.73;19.80;;;;;;;;;;770757;180;914980;-70
2021/12/03 17:46:25;;;;;;;35.23;22.80;;;;;;;;;;772048;180;920362;-69
2021/12/03 17:48:41;;;;;;;41.30;24.27;;;;;;;;;;767086;183;912262;-70
2021/12/03 17:51:06;;;;;;;33.03;21.43;;;;;;;;;;770762;180;917833;-69
2021/12/03 17:53:43;;;;;;;29.07;19.17;;;;;;;;;;765543;180;914540;-70
2021/12/03 17:59:05;;;;;;;36.33;21.90;;;;;;;;;;765569;180;934929;-69
2021/12/03 18:01:13;;;;;;;34.38;21.08;;;;;;;;;;758252;183;919444;-69
2021/12/03 18:03:59;;;;;;;35.83;22.63;;;;;;;;;;773028;180;911865;-70
2021/12/03 18:06:57;;;;;;;39.57;22.10;;;;;;;;;;773039;180;916199;-70
2021/12/03 18:14:46;;;;;;;25.77;16.73;;;;;;;;;;756019;181;1014302;-69
2021/12/03 18:47:39;;;;;;;23.97;14.47;;;;;;;;;;756577;181;1021463;-68
2021/12/03 18:52:36;;;;;;;21.80;13.20;;;;;;;;;;769842;180;919013;-68
2021/12/03 18:54:56;;;;;;;24.60;14.40;;;;;;;;;;767673;179;918388;-68
2021/12/03 18:57:17;;;;;;;27.40;17.60;;;;;;;;;;765288;180;1020679;-68
2021/12/03 18:59:52;;;;;;;29.63;15.70;;;;;;;;;;774696;180;919495;-69
2021/12/03 19:02:08;;;;;;;22.37;13.45;;;;;;;;;;773944;181;919243;-70
2021/12/03 19:04:42;;;;;;;25.70;14.13;;;;;;;;;;769892;180;919456;-68
2021/12/03 19:07:04;;;;;;;23.42;14.60;;;;;;;;;;772573;180;918835;-69
2021/12/03 19:09:27;;;;;;;22.07;15.07;;;;;;;;;;769794;180;1027761;-69
2021/12/03 19:12:04;;;;;;;19.40;14.17;;;;;;;;;;762899;179;944297;-69
2021/12/03 19:14:32;;;;;;;25.50;13.20;;;;;;;;;;769852;180;919280;-70
2021/12/03 19:16:55;;;;;;;22.97;13.77;;;;;;;;;;769652;180;908031;-70
2021/12/03 19:19:22;;;;;;;25.05;14.55;;;;;;;;;;773859;181;920361;-69
2021/12/03 19:21:48;;;;;;;28.63;15.57;;;;;;;;;;771146;180;944455;-71
2021/12/03 19:24:13;;;;;;;26.57;15.90;;;;;;;;;;772279;180;919123;-70
2021/12/03 19:26:43;;;;;;;24.17;15.60;;;;;;;;;;773686;180;918500;-69
2021/12/03 19:29:11;;;;;;;29.00;19.23;;;;;;;;;;764951;181;918850;-69
2021/12/03 19:31:34;;;;;;;33.50;18.87;;;;;;;;;;763041;180;918375;-70
2021/12/03 19:34:00;;;;;;;30.03;19.90;;;;;;;;;;766133;180;919842;-70
2021/12/03 19:36:27;;;;;;;37.90;20.60;;;;;;;;;;774099;180;920853;-70
2021/12/03 19:38:52;;;;;;;36.80;18.47;;;;;;;;;;767613;180;918881;-69
2021/12/03 19:41:29;;;;;;;25.47;17.10;;;;;;;;;;766552;180;915284;-70
2021/12/03 19:43:51;;;;;;;26.10;16.20;;;;;;;;;;771510;179;915784;-69
2021/12/03 19:46:17;;;;;;;29.80;17.23;;;;;;;;;;758685;180;1244269;-70
2021/12/03 19:48:48;;;;;;;38.47;20.60;;;;;;;;;;770896;180;918901;-70